createdAt,value
2022-11-16T00:02:06.876Z,90.47
2022-11-16T00:04:36.579Z,85.93
2022-11-16T00:07:04.347Z,85.32
2022-11-16T00:09:32.502Z,76.32
2022-11-16T00:12:17.046Z,85.32
2022-11-16T00:15:02.800Z,80.53
2022-11-16T00:17:45.388Z,78.20
2022-11-16T00:20:30.205Z,81.05
2022-11-16T00:23:00.228Z,76.60
2022-11-16T00:25:53.587Z,78.10
2022-11-16T00:28:29.390Z,75.10
2022-11-16T00:31:09.213Z,78.20
2022-11-16T00:33:55.063Z,71.63
2022-11-16T00:36:46.620Z,71.70
2022-11-16T00:39:25.017Z,78.30
2022-11-16T00:42:01.982Z,78.45
2022-11-16T00:44:47.588Z,75.30
2022-11-16T00:47:16.400Z,76.13
2022-11-16T00:49:43.027Z,82.35
2022-11-16T00:52:09.692Z,81.15
2022-11-16T00:54:39.118Z,74.03
2022-11-16T00:57:05.649Z,73.72
2022-11-16T00:59:36.168Z,78.35
2022-11-16T01:02:03.656Z,71.55
2022-11-16T01:04:31.185Z,68.22
2022-11-16T01:06:57.895Z,64.60
2022-11-16T01:09:26.702Z,67.32
2022-11-16T01:12:12.753Z,74.38
2022-11-16T01:14:43.724Z,69.30
2022-11-16T01:17:11.642Z,72.82
2022-11-16T01:19:39.555Z,69.72
2022-11-16T01:22:06.734Z,70.28
2022-11-16T01:24:39.538Z,67.35
2022-11-16T01:27:09.038Z,73.22
2022-11-16T01:29:35.714Z,65.60
2022-11-16T01:32:02.235Z,64.20
2022-11-16T01:34:28.839Z,56.67
2022-11-16T01:36:55.399Z,65.85
2022-11-16T01:39:21.901Z,62.78
2022-11-16T01:41:48.621Z,65.05
2022-11-16T01:44:15.112Z,74.95
2022-11-16T01:46:47.961Z,73.95
2022-11-16T01:49:19.528Z,67.25
2022-11-16T01:51:52.903Z,70.18
2022-11-16T01:54:21.812Z,70.72
2022-11-16T01:56:56.574Z,68.88
2022-11-16T01:59:26.227Z,68.70
2022-11-16T02:01:52.919Z,69.07
2022-11-16T02:04:19.630Z,72.22
2022-11-16T02:07:17.273Z,66.50
2022-11-16T02:09:58.344Z,65.93
2022-11-16T02:12:40.286Z,69.57
2022-11-16T02:15:34.846Z,65.47
2022-11-16T02:18:04.310Z,68.35
2022-11-16T02:20:51.791Z,66.90
2022-11-16T02:23:33.725Z,62.90
2022-11-16T02:26:09.566Z,69.90
2022-11-16T02:29:04.170Z,58.75
2022-11-16T02:31:41.721Z,69.78
2022-11-16T02:34:11.444Z,68.85
2022-11-16T02:36:41.627Z,56.83
2022-11-16T02:39:14.861Z,60.00
2022-11-16T02:41:44.178Z,64.25
2022-11-16T02:44:40.292Z,62.35
2022-11-16T02:47:11.803Z,55.92
2022-11-16T02:49:45.444Z,53.17
2022-11-16T02:52:22.850Z,52.33
2022-11-16T02:54:49.659Z,56.30
2022-11-16T02:57:26.332Z,57.80
2022-11-16T03:00:01.334Z,52.30
2022-11-16T03:02:42.753Z,57.92
2022-11-16T03:05:18.288Z,54.40
2022-11-16T03:07:50.987Z,60.78
2022-11-16T03:10:52.084Z,64.25
2022-11-16T03:13:23.401Z,54.92
2022-11-16T03:15:50.905Z,53.10
2022-11-16T03:18:22.393Z,61.67
2022-11-16T03:20:52.920Z,65.10
2022-11-16T03:23:20.561Z,59.33
2022-11-16T03:25:51.706Z,63.30
2022-11-16T03:28:44.135Z,54.72
2022-11-16T03:33:53.920Z,58.80
2022-11-16T03:36:31.988Z,62.58
2022-11-16T03:39:04.432Z,54.08
2022-11-16T03:41:33.195Z,53.78
2022-11-16T03:44:00.610Z,55.47
2022-11-16T03:46:27.240Z,53.92
2022-11-16T03:49:01.390Z,52.65
2022-11-16T03:51:30.570Z,52.83
2022-11-16T03:54:05.947Z,59.78
2022-11-16T03:56:35.653Z,52.33
2022-11-16T03:59:02.241Z,49.22
2022-11-16T04:01:29.045Z,52.53
2022-11-16T04:04:01.759Z,50.67
2022-11-16T04:06:47.021Z,50.80
2022-11-16T04:09:35.215Z,51.65
2022-11-16T04:12:20.359Z,49.95
2022-11-16T04:15:19.558Z,57.30
2022-11-16T04:18:04.451Z,55.78
2022-11-16T04:20:52.750Z,47.05
2022-11-16T04:23:40.711Z,47.78
2022-11-16T04:26:10.442Z,51.50
2022-11-16T04:28:38.061Z,52.08
2022-11-16T04:31:24.228Z,46.70
2022-11-16T04:34:11.123Z,43.72
2022-11-16T04:36:56.655Z,47.22
2022-11-16T04:39:23.190Z,46.00
2022-11-16T04:42:14.310Z,52.92
2022-11-16T04:44:59.401Z,48.47
2022-11-16T04:47:30.916Z,49.80
2022-11-16T04:49:57.507Z,46.53
2022-11-16T04:52:24.222Z,45.03
2022-11-16T04:54:53.772Z,47.30
2022-11-16T04:57:20.644Z,43.58
2022-11-16T04:59:47.303Z,50.53
2022-11-16T05:02:15.226Z,47.47
2022-11-16T05:04:46.548Z,47.72
2022-11-16T05:07:17.281Z,45.90
2022-11-16T05:09:46.551Z,50.47
2022-11-16T05:12:16.054Z,46.60
2022-11-16T05:14:46.992Z,44.40
2022-11-16T05:17:14.695Z,50.70
2022-11-16T05:19:59.895Z,48.63
2022-11-16T05:22:26.745Z,49.00
2022-11-16T05:24:53.707Z,48.63
2022-11-16T05:27:22.988Z,45.85
2022-11-16T05:29:50.794Z,53.72
2022-11-16T05:32:19.343Z,48.08
2022-11-16T05:34:46.646Z,49.53
2022-11-16T05:37:21.153Z,54.42
2022-11-16T05:39:50.896Z,52.50
2022-11-16T05:42:17.574Z,53.15
2022-11-16T05:44:44.760Z,47.45
2022-11-16T05:47:11.435Z,58.10
2022-11-16T05:49:38.125Z,52.65
2022-11-16T05:52:04.700Z,43.67
2022-11-16T05:54:31.390Z,58.75
2022-11-16T05:57:00.764Z,54.67
2022-11-16T05:59:29.341Z,53.15
2022-11-16T06:01:55.991Z,50.42
2022-11-16T06:04:24.813Z,53.80
2022-11-16T06:06:52.071Z,54.65
2022-11-16T06:09:21.987Z,45.67
2022-11-16T06:11:48.869Z,57.83
2022-11-16T06:14:15.723Z,62.25
2022-11-16T06:16:42.360Z,60.55
2022-11-16T06:19:11.143Z,58.92
2022-11-16T06:21:37.687Z,63.42
2022-11-16T06:24:09.635Z,63.67
2022-11-16T06:29:04.183Z,70.00
2022-11-16T06:31:34.045Z,65.95
2022-11-16T06:34:00.645Z,65.55
2022-11-16T06:36:27.216Z,63.08
2022-11-16T06:38:53.969Z,72.03
2022-11-16T06:41:21.849Z,58.60
2022-11-16T06:43:48.453Z,59.83
2022-11-16T06:46:23.933Z,58.25
2022-11-16T06:48:50.896Z,54.58
2022-11-16T06:51:21.659Z,57.17
2022-11-16T06:53:54.014Z,54.72
2022-11-16T06:56:23.598Z,55.70
2022-11-16T06:58:53.271Z,58.60
2022-11-16T07:01:20.752Z,55.90
2022-11-16T07:03:55.367Z,47.97
2022-11-16T07:06:27.930Z,55.08
2022-11-16T07:08:54.557Z,51.97
2022-11-16T07:11:21.477Z,53.88
2022-11-16T07:13:49.387Z,52.55
2022-11-16T07:16:16.035Z,61.08
2022-11-16T07:18:42.686Z,70.80
2022-11-16T07:21:15.979Z,62.88
2022-11-16T07:23:43.456Z,71.32
2022-11-16T07:26:13.707Z,62.15
2022-11-16T07:28:45.022Z,60.38
2022-11-16T07:31:16.014Z,63.90
2022-11-16T07:33:45.540Z,64.20
2022-11-16T07:36:14.429Z,68.85
2022-11-16T07:38:47.603Z,72.20
2022-11-16T07:41:17.094Z,74.95
2022-11-16T07:43:47.200Z,63.08
2022-11-16T07:49:16.056Z,60.60
2022-11-16T07:51:43.358Z,65.38
2022-11-16T07:54:16.438Z,66.07
2022-11-16T07:56:43.800Z,66.53
2022-11-16T07:59:17.424Z,70.25
2022-11-16T08:01:46.508Z,66.82
2022-11-16T08:04:13.269Z,72.60
2022-11-16T08:06:41.980Z,62.75
2022-11-16T08:09:09.483Z,70.32
2022-11-16T08:11:36.101Z,72.13
2022-11-16T08:14:07.262Z,70.68
2022-11-16T08:16:36.420Z,64.07
2022-11-16T08:19:05.786Z,74.85
2022-11-16T08:21:33.013Z,68.97
2022-11-16T08:24:01.289Z,64.97
2022-11-16T08:26:27.991Z,62.25
2022-11-16T08:28:56.605Z,63.25
2022-11-16T08:31:26.291Z,59.38
2022-11-16T08:33:53.039Z,60.03
2022-11-16T08:36:20.587Z,57.55
2022-11-16T08:38:49.429Z,58.80
2022-11-16T08:41:17.348Z,59.28
2022-11-16T08:43:47.135Z,59.20
2022-11-16T08:46:18.272Z,52.60
2022-11-16T08:48:46.096Z,58.00
2022-11-16T08:51:27.120Z,52.67
2022-11-16T08:54:00.007Z,60.40
2022-11-16T08:56:27.530Z,57.78
2022-11-16T08:58:58.667Z,62.63
2022-11-16T09:01:28.709Z,57.22
2022-11-16T09:03:56.866Z,61.40
2022-11-16T09:06:24.816Z,64.72
2022-11-16T09:08:51.992Z,60.22
2022-11-16T09:11:22.019Z,59.45
2022-11-16T09:13:50.472Z,62.13
2022-11-16T09:16:17.950Z,66.35
2022-11-16T09:18:49.941Z,66.40
2022-11-16T09:23:56.173Z,62.88
2022-11-16T09:26:24.588Z,61.80
2022-11-16T09:29:03.417Z,51.75
2022-11-16T09:31:34.288Z,57.67
2022-11-16T09:34:01.377Z,61.00
2022-11-16T09:36:29.054Z,55.78
2022-11-16T09:39:23.639Z,60.03
2022-11-16T09:42:16.252Z,55.90
2022-11-16T09:45:06.420Z,54.20
2022-11-16T09:47:51.825Z,56.60
2022-11-16T09:50:51.817Z,56.88
2022-11-16T09:53:34.212Z,54.95
2022-11-16T09:56:10.841Z,58.28
2022-11-16T09:59:06.270Z,56.13
2022-11-16T10:02:02.208Z,47.85
2022-11-16T10:04:46.560Z,49.17
2022-11-16T10:07:16.899Z,45.58
2022-11-16T10:09:47.002Z,44.78
2022-11-16T10:12:40.333Z,43.92
2022-11-16T10:15:15.504Z,47.20
2022-11-16T10:17:59.949Z,46.42
2022-11-16T10:20:54.472Z,49.80
2022-11-16T10:23:39.617Z,43.60
2022-11-16T10:26:21.611Z,42.42
2022-11-16T10:31:21.600Z,116.00
2022-11-16T10:33:52.377Z,41.28
2022-11-16T10:36:27.081Z,33.97
2022-11-16T10:38:57.114Z,39.80
2022-11-16T10:41:43.262Z,39.17
2022-11-16T10:44:21.913Z,33.08
2022-11-16T10:47:05.632Z,30.42
2022-11-16T10:49:40.882Z,50.65
2022-11-16T10:52:10.453Z,42.42
2022-11-16T10:54:42.874Z,41.40
2022-11-16T10:57:15.982Z,30.88
2022-11-16T11:02:33.684Z,27.57
2022-11-16T11:05:17.471Z,25.80
2022-11-16T11:08:02.186Z,26.70
2022-11-16T11:10:32.282Z,32.10
2022-11-16T11:13:11.283Z,27.48
2022-11-16T11:15:40.508Z,30.75
2022-11-16T11:18:16.104Z,22.42
2022-11-16T11:20:46.768Z,17.08
2022-11-16T11:23:22.302Z,21.90
2022-11-16T11:26:05.455Z,27.27
2022-11-16T11:28:34.863Z,27.20
2022-11-16T11:31:17.142Z,27.17
2022-11-16T11:33:57.355Z,27.40
2022-11-16T11:36:38.547Z,26.83
2022-11-16T11:39:26.603Z,26.33
2022-11-16T11:42:07.374Z,20.25
2022-11-16T11:44:45.526Z,18.73
2022-11-16T11:50:21.881Z,16.08
2022-11-16T11:53:19.467Z,30.65
2022-11-16T11:55:46.195Z,18.20
2022-11-16T11:58:19.525Z,17.30
2022-11-16T12:01:24.900Z,23.23
2022-11-16T12:04:44.175Z,15.25
2022-11-16T12:07:36.903Z,20.95
2022-11-16T12:10:22.584Z,23.52
2022-11-16T12:12:56.110Z,16.85
2022-11-16T12:15:55.366Z,16.60
2022-11-16T12:18:36.953Z,21.33
2022-11-16T12:21:27.032Z,19.13
2022-11-16T12:24:17.472Z,17.33
2022-11-16T12:27:12.379Z,22.02
2022-11-16T12:29:54.281Z,21.65
2022-11-16T12:33:02.469Z,19.42
2022-11-16T12:35:53.172Z,19.67
2022-11-16T12:38:38.055Z,19.52
2022-11-16T12:41:31.223Z,19.15
2022-11-16T12:44:00.776Z,18.88
2022-11-16T12:46:55.705Z,24.08
2022-11-16T12:49:40.041Z,19.65
2022-11-16T12:52:45.574Z,19.83
2022-11-16T12:55:26.278Z,23.08
2022-11-16T12:58:21.956Z,20.20
2022-11-16T13:00:54.699Z,22.80
2022-11-16T13:03:54.309Z,22.50
2022-11-16T13:06:32.780Z,23.52
2022-11-16T13:09:28.702Z,24.88
2022-11-16T13:11:58.579Z,24.08
2022-11-16T13:14:38.084Z,19.38
2022-11-16T13:17:06.763Z,20.33
2022-11-16T13:19:39.915Z,20.58
2022-11-16T13:22:33.019Z,27.02
2022-11-16T13:25:20.957Z,24.27
2022-11-16T13:27:58.426Z,20.23
2022-11-16T13:30:33.620Z,25.17
2022-11-16T13:33:40.744Z,24.90
2022-11-16T13:36:32.460Z,29.88
2022-11-16T13:38:59.370Z,22.60
2022-11-16T13:41:50.603Z,28.88
2022-11-16T13:44:22.976Z,21.80
2022-11-16T13:47:04.073Z,21.15
2022-11-16T13:49:35.035Z,20.25
2022-11-16T13:52:23.118Z,22.27
2022-11-16T13:55:22.121Z,20.85
2022-11-16T13:57:59.373Z,21.55
2022-11-16T14:00:33.576Z,21.88
2022-11-16T14:03:16.430Z,20.63
2022-11-16T14:05:48.251Z,19.70
2022-11-16T14:08:26.777Z,20.73
2022-11-16T14:10:53.281Z,19.55
2022-11-16T14:13:39.981Z,24.13
2022-11-16T14:16:21.857Z,20.85
2022-11-16T14:19:00.326Z,21.35
2022-11-16T14:21:58.055Z,21.88
2022-11-16T14:24:49.012Z,20.85
2022-11-16T14:27:49.392Z,20.25
2022-11-16T14:30:35.805Z,19.70
2022-11-16T14:33:02.867Z,19.17
2022-11-16T14:35:39.049Z,20.90
2022-11-16T14:38:42.026Z,19.75
2022-11-16T14:41:21.179Z,16.63
2022-11-16T14:43:53.089Z,19.23
2022-11-16T14:49:01.041Z,17.73
2022-11-16T14:51:31.419Z,17.05
2022-11-16T14:54:19.348Z,18.23
2022-11-16T14:57:20.474Z,17.27
2022-11-16T15:00:07.031Z,44.88
2022-11-16T15:02:35.433Z,17.90
2022-11-16T15:05:05.215Z,20.90
2022-11-16T15:07:33.961Z,19.42
2022-11-16T15:10:06.333Z,24.73
2022-11-16T15:12:41.723Z,129.25
2022-11-16T15:15:27.992Z,112.63
2022-11-16T15:18:12.206Z,23.85
2022-11-16T15:20:52.576Z,17.20
2022-11-16T15:23:21.599Z,20.90
2022-11-16T15:25:54.571Z,64.93
2022-11-16T15:28:34.970Z,79.35
2022-11-16T15:31:06.081Z,49.97
2022-11-16T15:33:40.472Z,43.30
2022-11-16T15:36:37.762Z,24.20
2022-11-16T15:39:06.316Z,41.03
2022-11-16T15:41:34.198Z,73.95
2022-11-16T15:44:15.052Z,82.97
2022-11-16T15:46:47.324Z,49.47
2022-11-16T15:49:41.049Z,32.85
2022-11-16T15:52:07.752Z,118.78
2022-11-16T15:55:02.040Z,88.72
2022-11-16T15:57:31.248Z,78.60
2022-11-16T16:00:02.277Z,34.97
2022-11-16T16:02:32.920Z,35.47
2022-11-16T16:05:04.993Z,36.53
2022-11-16T16:07:40.012Z,37.00
2022-11-16T16:10:30.119Z,34.55
2022-11-16T16:13:00.541Z,39.35
2022-11-16T16:15:43.204Z,35.67
2022-11-16T16:18:41.305Z,33.35
2022-11-16T16:21:09.620Z,39.03
2022-11-16T16:24:10.689Z,34.03
2022-11-16T16:26:39.317Z,43.60
2022-11-16T16:29:09.975Z,36.30
2022-11-16T16:31:42.776Z,32.17
2022-11-16T16:34:13.874Z,36.58
2022-11-16T16:36:40.468Z,37.88
2022-11-16T16:39:07.329Z,35.70
2022-11-16T16:41:36.253Z,32.05
2022-11-16T16:44:09.572Z,32.90
2022-11-16T16:46:38.438Z,36.72
2022-11-16T16:49:08.181Z,37.08
2022-11-16T16:51:37.094Z,31.92
2022-11-16T16:54:03.940Z,34.30
2022-11-16T16:56:38.229Z,32.25
2022-11-16T16:59:19.804Z,36.83
2022-11-16T17:01:47.262Z,33.88
2022-11-16T17:04:37.274Z,30.98
2022-11-16T17:07:06.352Z,32.97
2022-11-16T17:09:33.893Z,35.08
2022-11-16T17:12:00.649Z,32.90
2022-11-16T17:14:29.367Z,34.95
2022-11-16T17:16:56.275Z,31.60
2022-11-16T17:19:26.125Z,32.83
2022-11-16T17:21:56.551Z,38.20
2022-11-16T17:24:24.174Z,34.35
2022-11-16T17:26:54.030Z,31.05
2022-11-16T17:29:23.438Z,28.23
2022-11-16T17:31:50.645Z,28.45
2022-11-16T17:34:19.375Z,29.17
2022-11-16T17:36:46.418Z,27.20
2022-11-16T17:39:23.500Z,25.20
2022-11-16T17:41:52.088Z,28.15
2022-11-16T17:44:22.100Z,28.63
2022-11-16T17:46:52.627Z,29.98
2022-11-16T17:49:19.476Z,29.42
2022-11-16T17:51:47.972Z,27.80
2022-11-16T17:54:17.965Z,34.42
2022-11-16T17:56:44.546Z,27.77
2022-11-16T17:59:14.553Z,36.88
2022-11-16T18:01:42.104Z,34.53
2022-11-16T18:04:08.852Z,31.50
2022-11-16T18:06:36.780Z,29.63
2022-11-16T18:09:06.841Z,33.83
2022-11-16T18:11:36.176Z,34.10
2022-11-16T18:14:06.256Z,33.05
2022-11-16T18:16:33.775Z,25.67
2022-11-16T18:19:03.004Z,28.48
2022-11-16T18:21:30.533Z,30.17
2022-11-16T18:23:59.463Z,32.05
2022-11-16T18:26:32.227Z,32.47
2022-11-16T18:29:09.170Z,35.38
2022-11-16T18:31:35.974Z,35.72
2022-11-16T18:34:05.380Z,30.35
2022-11-16T18:36:32.627Z,34.28
2022-11-16T18:38:59.326Z,32.28
2022-11-16T18:41:29.063Z,35.97
2022-11-16T18:43:58.576Z,33.83
2022-11-16T18:46:30.729Z,35.22
2022-11-16T18:48:58.105Z,34.75
2022-11-16T18:51:28.452Z,35.30
2022-11-16T18:53:55.657Z,29.67
2022-11-16T18:56:24.576Z,38.63
2022-11-16T18:58:53.229Z,38.33
2022-11-16T19:01:26.111Z,43.47
2022-11-16T19:03:54.855Z,44.33
2022-11-16T19:06:22.590Z,30.30
2022-11-16T19:09:03.671Z,32.80
2022-11-16T19:11:30.486Z,33.30
2022-11-16T19:14:09.480Z,36.50
2022-11-16T19:16:43.369Z,31.83
2022-11-16T19:19:22.205Z,33.22
2022-11-16T19:21:48.956Z,37.65
2022-11-16T19:24:17.194Z,36.45
2022-11-16T19:26:44.588Z,36.30
2022-11-16T19:29:11.386Z,33.65
2022-11-16T19:31:41.259Z,37.85
2022-11-16T19:34:10.984Z,35.97
2022-11-16T19:36:37.941Z,40.08
2022-11-16T19:39:08.991Z,40.00
2022-11-16T19:41:39.667Z,37.07
2022-11-16T19:44:06.333Z,35.80
2022-11-16T19:46:36.744Z,37.35
2022-11-16T19:49:03.773Z,39.47
2022-11-16T19:51:32.965Z,38.47
2022-11-16T19:54:01.574Z,44.78
2022-11-16T19:56:28.383Z,42.53
2022-11-16T19:58:59.564Z,44.15
2022-11-16T20:01:31.070Z,42.75
2022-11-16T20:04:05.167Z,42.75
2022-11-16T20:06:35.293Z,39.92
2022-11-16T20:09:11.056Z,40.65
2022-11-16T20:11:45.285Z,46.40
2022-11-16T20:14:15.768Z,46.40
2022-11-16T20:16:49.456Z,50.45
2022-11-16T20:19:29.545Z,46.50
2022-11-16T20:21:59.671Z,44.88
2022-11-16T20:24:26.569Z,40.38
2022-11-16T20:26:56.335Z,47.40
2022-11-16T20:29:25.217Z,51.85
2022-11-16T20:31:51.836Z,46.30
2022-11-16T20:34:22.321Z,46.15
2022-11-16T20:36:51.029Z,49.85
2022-11-16T20:39:20.205Z,48.83
2022-11-16T20:41:50.191Z,48.78
2022-11-16T20:44:26.355Z,46.13
2022-11-16T20:46:55.788Z,47.70
2022-11-16T20:49:26.054Z,46.97
2022-11-16T20:51:58.645Z,47.90
2022-11-16T20:54:29.121Z,50.50
2022-11-16T20:57:01.194Z,48.85
2022-11-16T20:59:29.336Z,48.10
2022-11-16T21:01:57.682Z,50.15
2022-11-16T21:04:26.295Z,48.25
2022-11-16T21:06:59.405Z,42.55
2022-11-16T21:09:26.621Z,46.75
2022-11-16T21:12:12.170Z,46.08
2022-11-16T21:14:40.310Z,45.50
2022-11-16T21:17:07.714Z,42.97
2022-11-16T21:19:34.503Z,47.72
2022-11-16T21:22:01.226Z,47.45
2022-11-16T21:24:35.599Z,46.28
2022-11-16T21:27:02.334Z,47.40
2022-11-16T21:29:31.242Z,42.08
2022-11-16T21:31:58.486Z,48.83
2022-11-16T21:34:28.011Z,47.80
2022-11-16T21:36:54.755Z,44.83
2022-11-16T21:39:21.617Z,47.50
2022-11-16T21:41:48.932Z,45.83
2022-11-16T21:44:20.589Z,46.38
2022-11-16T21:46:57.857Z,42.55
2022-11-16T21:49:26.840Z,46.03
2022-11-16T21:51:53.982Z,46.10
2022-11-16T21:54:21.546Z,46.15
2022-11-16T21:56:49.485Z,46.53
2022-11-16T21:59:19.534Z,41.88
2022-11-16T22:02:01.817Z,42.42
2022-11-16T22:04:47.228Z,42.92
2022-11-16T22:07:38.754Z,44.63
2022-11-16T22:10:16.050Z,49.53
2022-11-16T22:12:45.253Z,47.60
2022-11-16T22:15:14.806Z,41.72
2022-11-16T22:17:45.399Z,43.33
2022-11-16T22:20:13.539Z,38.72
2022-11-16T22:22:40.794Z,47.70
2022-11-16T22:25:14.222Z,42.00
2022-11-16T22:28:13.528Z,42.63
2022-11-16T22:30:36.303Z,40.88
2022-11-16T22:33:03.522Z,41.55
2022-11-16T22:35:32.344Z,39.65
2022-11-16T22:37:59.814Z,40.55
2022-11-16T22:40:30.500Z,37.53
2022-11-16T22:42:59.059Z,39.70
2022-11-16T22:45:26.349Z,38.22
2022-11-16T22:47:55.015Z,43.47
2022-11-16T22:50:24.242Z,44.70
2022-11-16T22:52:53.209Z,40.42
2022-11-16T22:55:22.036Z,41.20
2022-11-16T22:57:51.973Z,39.10
2022-11-16T23:00:24.563Z,41.53
2022-11-16T23:02:53.032Z,37.25
2022-11-16T23:05:20.898Z,39.25
2022-11-16T23:11:04.166Z,44.28
2022-11-16T23:14:20.410Z,39.97
2022-11-16T23:16:45.576Z,30.85
2022-11-16T23:19:37.105Z,40.17
2022-11-16T23:22:25.534Z,36.42
2022-11-16T23:25:10.873Z,35.10
2022-11-16T23:27:59.425Z,38.90
2022-11-16T23:30:26.383Z,39.38
2022-11-16T23:32:53.452Z,33.08
2022-11-16T23:35:20.855Z,36.97
2022-11-16T23:38:01.482Z,35.78
2022-11-16T23:40:34.194Z,34.40
2022-11-16T23:43:23.075Z,38.50
2022-11-16T23:45:50.689Z,36.22
2022-11-16T23:48:22.700Z,36.28
2022-11-16T23:53:16.006Z,34.63
2022-11-16T23:55:42.555Z,36.63
2022-11-16T23:58:16.649Z,33.65
